Time;durP1;ratioP1;P1;durP2;ratioP2;P2;SDS_P1;SDS_P2;PMS_P1;PMS_P2;Temp;Humidity;BMP_temperature;BMP_pressure;BME280_temperature;BME280_humidity;BME280_pressure;Samples;Min_cycle;Max_cycle;Signal;HPM_P1;HPM_P2
2024/01/10 00:02:10;;;;;;;0.10;0.10;;;;;;;;;;4962293;28;20228;-76
2024/01/10 00:04:37;;;;;;;2.83;1.55;;;;;;;;;;4961110;28;20504;-76
2024/01/10 00:07:05;;;;;;;0.80;0.80;;;;;;;;;;4963475;28;20153;-76
2024/01/10 00:09:33;;;;;;;4.00;1.25;;;;;;;;;;4962576;28;20050;-76
2024/01/10 00:12:00;;;;;;;0.10;0.10;;;;;;;;;;4963724;28;20792;-76
2024/01/10 00:14:28;;;;;;;0.35;0.35;;;;;;;;;;4956759;28;20082;-76
2024/01/10 00:16:56;;;;;;;0.55;0.55;;;;;;;;;;4959452;28;20047;-76
2024/01/10 00:19:24;;;;;;;1.60;1.55;;;;;;;;;;4958047;28;20066;-76
2024/01/10 00:21:51;;;;;;;0.90;0.90;;;;;;;;;;4958068;28;20055;-76
2024/01/10 00:24:19;;;;;;;7.40;3.85;;;;;;;;;;4958487;28;20050;-76
2024/01/10 00:26:46;;;;;;;0.20;0.20;;;;;;;;;;4952567;28;20478;-76
2024/01/10 00:29:14;;;;;;;0.20;0.20;;;;;;;;;;4949579;28;20191;-76
2024/01/10 00:31:42;;;;;;;2.28;1.95;;;;;;;;;;4951172;28;20173;-76
2024/01/10 00:34:10;;;;;;;0.10;0.10;;;;;;;;;;4950795;28;20047;-76
2024/01/10 00:36:37;;;;;;;5.53;3.30;;;;;;;;;;4951210;28;20523;-76
2024/01/10 00:39:05;;;;;;;2.10;1.88;;;;;;;;;;4953173;28;20055;-76
2024/01/10 00:41:32;;;;;;;10.50;3.70;;;;;;;;;;4950173;28;20141;-76
2024/01/10 00:44:00;;;;;;;3.00;2.00;;;;;;;;;;4950274;28;20461;-76
2024/01/10 00:46:28;;;;;;;0.95;0.95;;;;;;;;;;4951023;28;20146;-76
2024/01/10 00:48:56;;;;;;;6.93;2.60;;;;;;;;;;4950115;28;20167;-76
2024/01/10 00:51:24;;;;;;;1.35;0.90;;;;;;;;;;4957253;28;20047;-76
2024/01/10 00:53:52;;;;;;;4.25;2.00;;;;;;;;;;4953813;28;20051;-76
2024/01/10 00:56:19;;;;;;;0.68;0.68;;;;;;;;;;4958010;28;20053;-76
2024/01/10 00:58:47;;;;;;;5.22;2.90;;;;;;;;;;4955409;28;20509;-76
2024/01/10 01:01:14;;;;;;;4.18;2.45;;;;;;;;;;4952400;28;20043;-76
2024/01/10 01:03:42;;;;;;;3.25;1.92;;;;;;;;;;4952352;28;20146;-77
2024/01/10 01:06:10;;;;;;;2.15;1.90;;;;;;;;;;4951135;28;20074;-77
2024/01/10 01:08:38;;;;;;;4.05;2.97;;;;;;;;;;4954566;28;20050;-77
2024/01/10 01:11:06;;;;;;;1.75;1.38;;;;;;;;;;4959502;28;20093;-75
2024/01/10 01:13:33;;;;;;;6.88;4.00;;;;;;;;;;4960928;28;20051;-75
2024/01/10 01:16:01;;;;;;;0.30;0.30;;;;;;;;;;4957481;28;20449;-75
2024/01/10 01:18:29;;;;;;;3.10;2.08;;;;;;;;;;4962263;28;20043;-75
2024/01/10 01:20:57;;;;;;;0.65;0.40;;;;;;;;;;4955670;28;20106;-74
2024/01/10 01:23:25;;;;;;;6.38;3.22;;;;;;;;;;4954420;28;20062;-75
2024/01/10 01:26:08;;;;;;;2.63;1.40;;;;;;;;;;4955771;28;20855;-75
2024/01/10 01:28:35;;;;;;;0.77;0.77;;;;;;;;;;4954218;28;20065;-74
2024/01/10 01:31:03;;;;;;;0.95;0.95;;;;;;;;;;4957712;28;20463;-74
2024/01/10 01:33:31;;;;;;;0.17;0.17;;;;;;;;;;4961752;28;20416;-75
2024/01/10 01:35:59;;;;;;;0.63;0.55;;;;;;;;;;4956585;28;20058;-74
2024/01/10 01:38:27;;;;;;;0.40;0.15;;;;;;;;;;4956200;28;20502;-74
2024/01/10 01:40:54;;;;;;;1.58;1.35;;;;;;;;;;4958783;28;20639;-74
2024/01/10 01:43:23;;;;;;;1.08;0.82;;;;;;;;;;4964765;28;20049;-75
2024/01/10 01:45:52;;;;;;;0.77;0.77;;;;;;;;;;4957789;28;20390;-75
2024/01/10 01:48:23;;;;;;;1.65;1.23;;;;;;;;;;4959914;28;20126;-74
2024/01/10 01:50:52;;;;;;;7.70;2.97;;;;;;;;;;4965235;28;20047;-74
2024/01/10 01:53:20;;;;;;;1.23;1.17;;;;;;;;;;4973598;28;20134;-75
2024/01/10 01:55:49;;;;;;;2.65;2.45;;;;;;;;;;4956465;28;21009;-75
2024/01/10 01:58:17;;;;;;;2.08;1.23;;;;;;;;;;4958212;28;20099;-75
2024/01/10 02:00:45;;;;;;;0.65;0.65;;;;;;;;;;4958223;28;20271;-74
2024/01/10 02:03:13;;;;;;;8.00;3.60;;;;;;;;;;4958783;28;20047;-75
2024/01/10 02:05:41;;;;;;;5.85;4.00;;;;;;;;;;4951625;28;20043;-75
2024/01/10 02:08:09;;;;;;;0.73;0.73;;;;;;;;;;4959726;28;20300;-75
2024/01/10 02:10:37;;;;;;;2.60;2.40;;;;;;;;;;4966737;28;20043;-75
2024/01/10 02:13:05;;;;;;;0.22;0.22;;;;;;;;;;4956945;28;20046;-75
2024/01/10 02:15:33;;;;;;;1.80;1.65;;;;;;;;;;4962117;28;20073;-74
2024/01/10 02:18:01;;;;;;;2.30;1.20;;;;;;;;;;4964885;28;20473;-74
2024/01/10 02:20:28;;;;;;;0.73;0.73;;;;;;;;;;4964577;28;20097;-75
2024/01/10 02:22:56;;;;;;;0.10;0.10;;;;;;;;;;4967348;28;20057;-75
2024/01/10 02:25:24;;;;;;;1.65;1.55;;;;;;;;;;4965353;28;20093;-75
2024/01/10 02:27:52;;;;;;;1.67;1.58;;;;;;;;;;4956844;28;20198;-75
2024/01/10 02:30:20;;;;;;;1.63;1.52;;;;;;;;;;4963971;28;20050;-75
2024/01/10 02:32:47;;;;;;;1.95;1.85;;;;;;;;;;4971009;28;20448;-75
2024/01/10 02:35:15;;;;;;;0.75;0.75;;;;;;;;;;4962820;28;20047;-75
2024/01/10 02:37:44;;;;;;;6.13;3.58;;;;;;;;;;4965653;28;20303;-75
2024/01/10 02:40:12;;;;;;;0.10;0.10;;;;;;;;;;4972889;28;20049;-75
2024/01/10 02:42:40;;;;;;;0.43;0.43;;;;;;;;;;4966462;28;20047;-75
2024/01/10 02:45:08;;;;;;;0.85;0.85;;;;;;;;;;4959638;28;20478;-75
2024/01/10 02:47:37;;;;;;;3.75;3.33;;;;;;;;;;4960729;28;20343;-75
2024/01/10 02:50:05;;;;;;;3.20;1.67;;;;;;;;;;4959451;28;20073;-75
2024/01/10 02:52:33;;;;;;;0.82;0.82;;;;;;;;;;4958062;28;20058;-75
2024/01/10 02:55:00;;;;;;;1.00;0.85;;;;;;;;;;4961692;28;20062;-75
2024/01/10 02:57:28;;;;;;;2.85;2.20;;;;;;;;;;4960562;28;20075;-75
2024/01/10 02:59:56;;;;;;;0.52;0.40;;;;;;;;;;4964538;28;20061;-75
2024/01/10 03:02:23;;;;;;;1.27;1.23;;;;;;;;;;4966054;28;20057;-75
2024/01/10 03:04:51;;;;;;;1.05;0.98;;;;;;;;;;4967663;28;20138;-75
2024/01/10 03:07:18;;;;;;;5.18;3.65;;;;;;;;;;4963277;28;20513;-75
2024/01/10 03:09:46;;;;;;;0.50;0.50;;;;;;;;;;4962189;28;20081;-75
2024/01/10 03:12:13;;;;;;;0.10;0.10;;;;;;;;;;4963294;28;20055;-75
2024/01/10 03:14:41;;;;;;;0.90;0.90;;;;;;;;;;4965265;28;20047;-75
2024/01/10 03:17:09;;;;;;;0.05;0.05;;;;;;;;;;4963275;28;20302;-75
2024/01/10 03:19:43;;;;;;;0.57;0.57;;;;;;;;;;4964307;28;20565;-75
2024/01/10 03:22:11;;;;;;;0.20;0.20;;;;;;;;;;4968052;28;20400;-75
2024/01/10 03:24:38;;;;;;;0.20;0.20;;;;;;;;;;4969918;28;20532;-75
2024/01/10 03:27:07;;;;;;;0.35;0.35;;;;;;;;;;4965932;28;20532;-75
2024/01/10 03:29:35;;;;;;;1.65;0.98;;;;;;;;;;4957476;28;20046;-75
2024/01/10 03:32:03;;;;;;;1.10;0.95;;;;;;;;;;4962681;28;20051;-75
2024/01/10 03:34:30;;;;;;;1.00;0.85;;;;;;;;;;4964796;28;20077;-75
2024/01/10 03:36:58;;;;;;;2.50;2.38;;;;;;;;;;4967010;28;20407;-75
2024/01/10 03:39:26;;;;;;;0.40;0.40;;;;;;;;;;4965946;28;20049;-75
2024/01/10 03:41:54;;;;;;;0.10;0.10;;;;;;;;;;4967247;28;20085;-75
2024/01/10 03:44:21;;;;;;;0.50;0.50;;;;;;;;;;4962703;28;20070;-75
2024/01/10 03:46:49;;;;;;;0.30;0.30;;;;;;;;;;4960480;28;20054;-75
2024/01/10 03:49:17;;;;;;;0.40;0.40;;;;;;;;;;4963253;28;20087;-75
2024/01/10 03:51:45;;;;;;;1.60;1.50;;;;;;;;;;4965691;28;20141;-75
2024/01/10 03:54:13;;;;;;;3.83;3.63;;;;;;;;;;4963096;28;20046;-75
2024/01/10 03:56:40;;;;;;;1.35;1.25;;;;;;;;;;4956326;28;20457;-75
2024/01/10 03:59:08;;;;;;;13.25;11.90;;;;;;;;;;4961113;28;20501;-75
2024/01/10 04:01:39;;;;;;;1.73;1.63;;;;;;;;;;4963270;28;20035;-75
2024/01/10 04:04:06;;;;;;;0.98;0.85;;;;;;;;;;4967411;28;20050;-75
2024/01/10 04:06:34;;;;;;;1.55;1.45;;;;;;;;;;4959947;28;20239;-75
2024/01/10 04:09:02;;;;;;;0.65;0.65;;;;;;;;;;4966169;28;20050;-75
2024/01/10 04:11:30;;;;;;;1.55;1.45;;;;;;;;;;4964479;28;20043;-75
2024/01/10 04:13:57;;;;;;;3.58;3.00;;;;;;;;;;4957793;28;20047;-75
2024/01/10 04:16:27;;;;;;;3.30;1.65;;;;;;;;;;4960496;28;20047;-75
2024/01/10 04:18:55;;;;;;;1.13;1.13;;;;;;;;;;4964283;28;20065;-75
2024/01/10 04:21:23;;;;;;;7.72;5.18;;;;;;;;;;4960428;28;20046;-75
2024/01/10 04:23:51;;;;;;;5.97;3.47;;;;;;;;;;4971809;28;20386;-75
2024/01/10 04:26:19;;;;;;;2.05;1.80;;;;;;;;;;4962906;28;20047;-75
2024/01/10 04:28:47;;;;;;;1.13;0.82;;;;;;;;;;4962693;28;20133;-75
2024/01/10 04:31:14;;;;;;;1.55;1.42;;;;;;;;;;4965587;28;20405;-75
2024/01/10 04:33:42;;;;;;;6.22;4.15;;;;;;;;;;4966730;28;20042;-75
2024/01/10 04:36:09;;;;;;;0.60;0.60;;;;;;;;;;5027125;23;20145;-79
2024/01/10 04:38:37;;;;;;;6.28;2.83;;;;;;;;;;4985165;28;20077;-79
2024/01/10 04:41:04;;;;;;;0.95;0.82;;;;;;;;;;5001504;28;20050;-79
2024/01/10 04:43:32;;;;;;;3.35;2.20;;;;;;;;;;4980105;28;20049;-79
2024/01/10 04:45:59;;;;;;;1.58;1.48;;;;;;;;;;4983299;28;20051;-79
2024/01/10 04:48:27;;;;;;;0.17;0.17;;;;;;;;;;4985620;28;20053;-79
2024/01/10 04:50:56;;;;;;;3.15;1.83;;;;;;;;;;4982408;28;21633;-80
2024/01/10 04:53:23;;;;;;;2.10;1.90;;;;;;;;;;4987526;28;20038;-79
2024/01/10 04:55:51;;;;;;;7.18;1.88;;;;;;;;;;4982338;28;20054;-79
2024/01/10 04:58:18;;;;;;;0.75;0.75;;;;;;;;;;4981008;28;20129;-79
2024/01/10 05:00:46;;;;;;;0.45;0.45;;;;;;;;;;4981333;28;20133;-80
2024/01/10 05:03:15;;;;;;;2.30;1.98;;;;;;;;;;4979437;28;20432;-79
2024/01/10 05:05:42;;;;;;;2.58;2.38;;;;;;;;;;4986200;28;20073;-79
2024/01/10 05:08:10;;;;;;;2.17;1.08;;;;;;;;;;4981830;28;20042;-79
2024/01/10 05:10:37;;;;;;;2.03;1.83;;;;;;;;;;4985163;28;20061;-79
2024/01/10 05:13:05;;;;;;;4.22;2.80;;;;;;;;;;4985457;28;20145;-79
2024/01/10 05:15:32;;;;;;;1.90;1.67;;;;;;;;;;4985354;28;20046;-79
2024/01/10 05:18:00;;;;;;;2.42;1.70;;;;;;;;;;4985384;28;20137;-79
2024/01/10 05:20:28;;;;;;;5.18;2.42;;;;;;;;;;4981429;28;20485;-80
2024/01/10 05:22:58;;;;;;;5.30;3.63;;;;;;;;;;4977950;28;20618;-80
2024/01/10 05:25:27;;;;;;;2.20;1.95;;;;;;;;;;4983111;28;20042;-79
2024/01/10 05:27:55;;;;;;;4.15;3.15;;;;;;;;;;4982769;28;20106;-80
2024/01/10 05:30:22;;;;;;;0.47;0.47;;;;;;;;;;4983266;28;20046;-80
2024/01/10 05:32:54;;;;;;;;;;;;;;;;;;4982957;28;20122;-81
2024/01/10 05:35:22;;;;;;;5.80;2.75;;;;;;;;;;4981889;28;19969;-81
2024/01/10 05:37:49;;;;;;;0.10;0.10;;;;;;;;;;4986808;28;20057;-80
2024/01/10 05:40:18;;;;;;;5.97;3.40;;;;;;;;;;4984629;28;20520;-80
2024/01/10 05:42:45;;;;;;;2.88;2.30;;;;;;;;;;4984678;28;20547;-79
2024/01/10 05:45:13;;;;;;;2.83;2.63;;;;;;;;;;4985507;28;20058;-80
2024/01/10 05:47:40;;;;;;;3.28;2.97;;;;;;;;;;4987116;28;20054;-80
2024/01/10 05:50:08;;;;;;;1.73;1.58;;;;;;;;;;4985111;28;20073;-80
2024/01/10 05:52:35;;;;;;;8.27;4.43;;;;;;;;;;4988057;28;20092;-80
2024/01/10 05:55:03;;;;;;;2.97;2.78;;;;;;;;;;4980074;28;20469;-80
2024/01/10 05:57:32;;;;;;;5.28;2.65;;;;;;;;;;4990681;28;20053;-80
2024/01/10 05:59:59;;;;;;;1.90;1.80;;;;;;;;;;4993017;28;20500;-80
2024/01/10 06:02:28;;;;;;;4.20;2.83;;;;;;;;;;4989715;28;20841;-83
2024/01/10 06:04:57;;;;;;;3.97;2.03;;;;;;;;;;4991597;28;20125;-80
2024/01/10 06:07:25;;;;;;;3.53;2.55;;;;;;;;;;4992577;28;20046;-78
2024/01/10 06:09:52;;;;;;;3.00;2.20;;;;;;;;;;4991601;28;20050;-80
2024/01/10 06:12:20;;;;;;;7.40;3.45;;;;;;;;;;4993820;28;20051;-81
2024/01/10 06:14:47;;;;;;;2.95;2.55;;;;;;;;;;4994061;28;20125;-79
2024/01/10 06:17:17;;;;;;;3.22;2.22;;;;;;;;;;5005770;28;20481;-80
2024/01/10 06:19:44;;;;;;;2.05;1.15;;;;;;;;;;4993164;28;20062;-80
2024/01/10 06:22:12;;;;;;;4.53;4.13;;;;;;;;;;5010182;28;20043;-80
2024/01/10 06:24:43;;;;;;;5.50;4.78;;;;;;;;;;4990580;28;20057;-80
2024/01/10 06:27:11;;;;;;;1.80;1.70;;;;;;;;;;4995591;28;20053;-80
2024/01/10 06:29:39;;;;;;;4.35;3.50;;;;;;;;;;4992987;28;20293;-81
2024/01/10 06:32:07;;;;;;;3.13;2.38;;;;;;;;;;5009900;28;20062;-79
2024/01/10 06:34:38;;;;;;;;;;;;;;;;;;4997558;28;20046;-80
2024/01/10 06:37:07;;;;;;;3.80;2.45;;;;;;;;;;4992818;28;20028;-80
2024/01/10 06:39:35;;;;;;;2.13;1.77;;;;;;;;;;4992689;28;20046;-81
2024/01/10 06:42:05;;;;;;;7.10;3.95;;;;;;;;;;4996624;28;20109;-79
2024/01/10 06:44:34;;;;;;;7.35;4.28;;;;;;;;;;4995325;28;20735;-80
2024/01/10 06:47:02;;;;;;;4.97;3.55;;;;;;;;;;4994166;28;20073;-80
2024/01/10 06:49:30;;;;;;;1.50;1.10;;;;;;;;;;5003707;28;20050;-80
2024/01/10 06:51:59;;;;;;;1.17;1.13;;;;;;;;;;5000577;28;20050;-80
2024/01/10 06:54:27;;;;;;;5.07;1.80;;;;;;;;;;5001639;28;20050;-80
2024/01/10 06:56:55;;;;;;;2.40;2.20;;;;;;;;;;4998379;28;20038;-82
2024/01/10 06:59:22;;;;;;;4.28;3.17;;;;;;;;;;5000198;28;20046;-80
2024/01/10 07:01:56;;;;;;;1.65;1.48;;;;;;;;;;4996644;28;20050;-80
2024/01/10 07:04:23;;;;;;;3.33;3.03;;;;;;;;;;4996751;28;20522;-80
2024/01/10 07:06:52;;;;;;;4.85;3.45;;;;;;;;;;4990329;28;20054;-81
2024/01/10 07:09:19;;;;;;;6.47;2.70;;;;;;;;;;4988014;28;20038;-80
2024/01/10 07:11:47;;;;;;;2.67;2.53;;;;;;;;;;4987997;28;20117;-80
2024/01/10 07:14:15;;;;;;;7.70;2.78;;;;;;;;;;4990064;28;20046;-80
2024/01/10 07:16:45;;;;;;;1.70;1.27;;;;;;;;;;4986670;28;20046;-81
2024/01/10 07:19:13;;;;;;;9.52;4.57;;;;;;;;;;4989814;28;20051;-80
2024/01/10 07:21:41;;;;;;;4.13;2.50;;;;;;;;;;4982224;28;20568;-82
2024/01/10 07:24:09;;;;;;;6.25;4.32;;;;;;;;;;4988214;28;20062;-82
2024/01/10 07:26:37;;;;;;;2.90;2.70;;;;;;;;;;4984193;28;20050;-80
2024/01/10 07:29:08;;;;;;;11.05;7.00;;;;;;;;;;4985111;28;20050;-81
2024/01/10 07:31:36;;;;;;;4.75;3.00;;;;;;;;;;4993529;28;20050;-81
2024/01/10 07:34:04;;;;;;;3.33;1.98;;;;;;;;;;4986900;28;20057;-81
2024/01/10 07:36:36;;;;;;;3.30;3.08;;;;;;;;;;4984081;28;20069;-81
2024/01/10 07:39:03;;;;;;;15.77;6.40;;;;;;;;;;4981841;28;20051;-81
2024/01/10 07:41:31;;;;;;;7.70;6.05;;;;;;;;;;4983938;28;20145;-81
2024/01/10 07:44:00;;;;;;;2.67;2.45;;;;;;;;;;4984119;28;20047;-81
2024/01/10 07:46:28;;;;;;;7.80;2.05;;;;;;;;;;4985720;28;20045;-81
2024/01/10 07:48:56;;;;;;;3.08;2.83;;;;;;;;;;4984598;28;20145;-81
2024/01/10 07:51:23;;;;;;;2.40;2.20;;;;;;;;;;4967706;28;20070;-80
2024/01/10 07:53:51;;;;;;;2.60;2.40;;;;;;;;;;4988889;28;20038;-81
2024/01/10 07:56:19;;;;;;;2.03;1.92;;;;;;;;;;4987359;28;20049;-82
2024/01/10 07:58:48;;;;;;;4.53;2.85;;;;;;;;;;4985411;28;20162;-81
2024/01/10 08:01:15;;;;;;;1.35;1.25;;;;;;;;;;4985198;28;20088;-81
2024/01/10 08:03:43;;;;;;;3.13;2.65;;;;;;;;;;4988647;28;20045;-81
2024/01/10 08:06:12;;;;;;;2.40;1.92;;;;;;;;;;4984459;28;20084;-80
2024/01/10 08:08:53;;;;;;;;;;;;;;;;;;4986759;28;20050;-80
2024/01/10 08:11:20;;;;;;;2.35;2.00;;;;;;;;;;4985105;28;20354;-80
2024/01/10 08:13:48;;;;;;;6.15;1.77;;;;;;;;;;4988024;28;20414;-80
2024/01/10 08:16:17;;;;;;;3.85;3.38;;;;;;;;;;4988015;28;20050;-81
2024/01/10 08:18:45;;;;;;;0.90;0.90;;;;;;;;;;4989578;28;20078;-81
2024/01/10 08:21:12;;;;;;;2.03;1.90;;;;;;;;;;4988530;28;20066;-81
2024/01/10 08:23:40;;;;;;;7.50;5.00;;;;;;;;;;4985361;28;20061;-80
2024/01/10 08:26:11;;;;;;;2.72;2.30;;;;;;;;;;4983354;28;20137;-81
2024/01/10 08:28:39;;;;;;;4.40;1.60;;;;;;;;;;4988058;28;20477;-82
2024/01/10 08:31:07;;;;;;;10.02;5.47;;;;;;;;;;4987740;28;20078;-82
2024/01/10 08:33:34;;;;;;;2.88;2.30;;;;;;;;;;4991509;28;20042;-81
2024/01/10 08:36:02;;;;;;;1.90;1.80;;;;;;;;;;4986430;28;20050;-82
2024/01/10 08:38:29;;;;;;;2.92;2.72;;;;;;;;;;4988198;28;20078;-81
2024/01/10 08:40:57;;;;;;;4.88;4.43;;;;;;;;;;4989967;28;20439;-80
2024/01/10 08:43:24;;;;;;;8.68;3.92;;;;;;;;;;4988290;28;20070;-81
2024/01/10 08:45:52;;;;;;;0.93;0.93;;;;;;;;;;4985961;28;20046;-81
2024/01/10 08:48:19;;;;;;;1.05;1.05;;;;;;;;;;4987777;28;20066;-81
2024/01/10 08:50:47;;;;;;;1.17;1.17;;;;;;;;;;4994646;28;20080;-81
2024/01/10 08:53:16;;;;;;;3.25;1.77;;;;;;;;;;4989955;28;20046;-81
2024/01/10 08:55:43;;;;;;;2.40;1.95;;;;;;;;;;4994900;28;20046;-80
2024/01/10 08:58:11;;;;;;;1.02;0.82;;;;;;;;;;4992472;28;20567;-80
2024/01/10 09:00:38;;;;;;;1.55;1.45;;;;;;;;;;4989774;28;20073;-79
2024/01/10 09:03:07;;;;;;;0.20;0.20;;;;;;;;;;4988292;28;20042;-81
2024/01/10 09:05:34;;;;;;;1.05;1.05;;;;;;;;;;4985279;28;20129;-81
2024/01/10 09:08:03;;;;;;;1.40;0.82;;;;;;;;;;4986754;28;20047;-86
2024/01/10 09:10:30;;;;;;;3.92;2.30;;;;;;;;;;4990767;28;20134;-80
2024/01/10 09:13:01;;;;;;;4.47;2.58;;;;;;;;;;4991444;28;20050;-80
2024/01/10 09:15:28;;;;;;;3.47;2.15;;;;;;;;;;4989904;28;20109;-80
2024/01/10 09:17:56;;;;;;;0.57;0.57;;;;;;;;;;4991914;28;20057;-82
2024/01/10 09:20:23;;;;;;;2.30;2.10;;;;;;;;;;4989025;28;20044;-80
2024/01/10 09:22:51;;;;;;;5.28;3.22;;;;;;;;;;4994021;28;20097;-81
2024/01/10 09:25:18;;;;;;;1.00;1.00;;;;;;;;;;4993793;28;20050;-80
2024/01/10 09:27:46;;;;;;;1.17;1.08;;;;;;;;;;4993010;28;20042;-80
2024/01/10 09:30:16;;;;;;;2.30;1.65;;;;;;;;;;4994067;28;20069;-80
2024/01/10 09:32:44;;;;;;;0.98;0.90;;;;;;;;;;4998976;28;20038;-80
2024/01/10 09:35:12;;;;;;;1.05;0.95;;;;;;;;;;4999093;28;20043;-80
2024/01/10 09:37:42;;;;;;;7.05;2.53;;;;;;;;;;4996376;28;20058;-81
2024/01/10 09:40:10;;;;;;;6.75;4.70;;;;;;;;;;4999598;28;20050;-82
2024/01/10 09:42:38;;;;;;;6.47;2.92;;;;;;;;;;4999712;28;20102;-81
2024/01/10 09:45:06;;;;;;;2.80;1.40;;;;;;;;;;4999513;28;20047;-80
2024/01/10 09:47:33;;;;;;;8.13;4.32;;;;;;;;;;4996841;28;20062;-80
2024/01/10 09:50:10;;;;;;;1.73;1.65;;;;;;;;;;4994790;28;20058;-85
2024/01/10 09:52:52;;;;;;;1.17;1.17;;;;;;;;;;4998963;28;20050;-85
2024/01/10 09:55:25;;;;;;;2.70;2.50;;;;;;;;;;4997870;28;20058;-80
2024/01/10 09:57:53;;;;;;;2.70;1.55;;;;;;;;;;4996157;28;20046;-81
2024/01/10 10:00:21;;;;;;;0.30;0.30;;;;;;;;;;4987049;28;20049;-82
2024/01/10 10:02:50;;;;;;;9.85;2.97;;;;;;;;;;4990350;28;20104;-82
2024/01/10 10:05:18;;;;;;;1.08;0.98;;;;;;;;;;4988900;28;20061;-79
2024/01/10 10:07:50;;;;;;;2.10;2.00;;;;;;;;;;4992721;28;20053;-79
2024/01/10 10:10:18;;;;;;;4.80;2.95;;;;;;;;;;4991236;28;20052;-87
2024/01/10 10:12:49;;;;;;;5.60;4.28;;;;;;;;;;4989986;28;20046;-80
2024/01/10 10:15:26;;;;;;;7.85;5.03;;;;;;;;;;4986998;28;20074;-80
2024/01/10 10:17:53;;;;;;;5.18;4.10;;;;;;;;;;4987902;28;20425;-80
2024/01/10 10:20:22;;;;;;;8.48;4.97;;;;;;;;;;4986670;28;20051;-80
2024/01/10 10:23:02;;;;;;;6.55;4.03;;;;;;;;;;4984901;28;20047;-80
2024/01/10 10:25:37;;;;;;;8.10;5.30;;;;;;;;;;4990741;28;20047;-80
2024/01/10 10:28:05;;;;;;;8.40;4.85;;;;;;;;;;4988612;28;20047;-80
2024/01/10 10:30:34;;;;;;;5.45;3.75;;;;;;;;;;4991968;28;20699;-80
2024/01/10 10:33:02;;;;;;;3.92;2.53;;;;;;;;;;4995386;28;20046;-80
2024/01/10 10:36:04;;;;;;;10.10;6.68;;;;;;;;;;5030629;23;20054;-80
2024/01/10 10:38:33;;;;;;;15.48;6.13;;;;;;;;;;4992056;28;20046;-80
2024/01/10 10:41:57;;;;;;;10.93;5.70;;;;;;;;;;4987927;28;20118;-79
2024/01/10 10:44:54;;;;;;;7.35;4.22;;;;;;;;;;4984844;28;20062;-80
2024/01/10 10:47:36;;;;;;;3.28;2.88;;;;;;;;;;4967688;28;20043;-81
2024/01/10 10:50:48;;;;;;;1.13;0.88;;;;;;;;;;4972104;28;20094;-83
2024/01/10 10:53:28;;;;;;;6.25;2.97;;;;;;;;;;4971796;28;20047;-80
2024/01/10 10:56:23;;;;;;;8.75;5.93;;;;;;;;;;4957945;28;20050;-81
2024/01/10 10:59:05;;;;;;;5.93;4.72;;;;;;;;;;4972280;28;20067;-79
2024/01/10 11:01:37;;;;;;;8.93;5.25;;;;;;;;;;4969656;28;20514;-79
2024/01/10 11:04:32;;;;;;;5.00;4.47;;;;;;;;;;4974704;28;20059;-80
2024/01/10 11:07:01;;;;;;;3.30;2.97;;;;;;;;;;4974255;28;20050;-81
2024/01/10 11:09:43;;;;;;;3.45;2.78;;;;;;;;;;4970810;28;20128;-80
2024/01/10 11:12:27;;;;;;;5.78;4.68;;;;;;;;;;4974275;28;20114;-81
2024/01/10 11:15:13;;;;;;;4.55;3.28;;;;;;;;;;4976060;28;20527;-80
2024/01/10 11:17:55;;;;;;;2.75;1.90;;;;;;;;;;4972928;28;20288;-80
2024/01/10 11:20:44;;;;;;;2.85;2.55;;;;;;;;;;4978326;28;20101;-80
2024/01/10 11:23:44;;;;;;;2.47;2.22;;;;;;;;;;4976016;28;20134;-81
2024/01/10 11:26:13;;;;;;;2.65;1.52;;;;;;;;;;4954844;28;20661;-80
2024/01/10 11:28:41;;;;;;;6.13;4.28;;;;;;;;;;4977485;28;20070;-80
2024/01/10 11:31:08;;;;;;;3.42;2.70;;;;;;;;;;4975201;28;20074;-81
2024/01/10 11:33:42;;;;;;;8.10;2.53;;;;;;;;;;4975889;28;20470;-80
2024/01/10 11:36:13;;;;;;;8.00;4.50;;;;;;;;;;4973636;28;20419;-80
2024/01/10 11:38:49;;;;;;;5.13;4.57;;;;;;;;;;4971346;28;20047;-80
2024/01/10 11:41:40;;;;;;;3.95;2.58;;;;;;;;;;4975261;28;20418;-79
2024/01/10 11:44:13;;;;;;;5.50;1.95;;;;;;;;;;4975346;28;20049;-79
2024/01/10 11:46:42;;;;;;;4.85;2.15;;;;;;;;;;4973570;28;20057;-80
2024/01/10 11:49:15;;;;;;;10.82;7.13;;;;;;;;;;4973388;28;20047;-82
2024/01/10 11:51:42;;;;;;;5.93;3.33;;;;;;;;;;4974936;28;20465;-80
2024/01/10 11:54:33;;;;;;;3.20;2.43;;;;;;;;;;4973658;28;20481;-79
2024/01/10 11:57:02;;;;;;;1.27;1.23;;;;;;;;;;4973552;28;20146;-80
2024/01/10 11:59:30;;;;;;;4.10;3.75;;;;;;;;;;4974647;28;20484;-79
2024/01/10 12:01:58;;;;;;;10.35;3.50;;;;;;;;;;4975108;28;20071;-80
2024/01/10 12:04:29;;;;;;;2.60;2.05;;;;;;;;;;4973092;28;20069;-80
2024/01/10 12:07:16;;;;;;;0.55;0.55;;;;;;;;;;4991575;28;20050;-80
2024/01/10 12:09:45;;;;;;;1.65;1.48;;;;;;;;;;4970149;28;20074;-80
2024/01/10 12:12:16;;;;;;;18.88;8.68;;;;;;;;;;4990437;28;20059;-81
2024/01/10 12:14:44;;;;;;;0.65;0.50;;;;;;;;;;4977459;28;20069;-79
2024/01/10 12:17:13;;;;;;;10.88;4.45;;;;;;;;;;4991537;28;20145;-80
2024/01/10 12:19:44;;;;;;;3.80;2.38;;;;;;;;;;4977274;28;20075;-81
2024/01/10 12:22:14;;;;;;;2.00;1.85;;;;;;;;;;4976015;28;20051;-81
2024/01/10 12:24:49;;;;;;;1.75;1.65;;;;;;;;;;4978498;28;20059;-81
2024/01/10 12:27:19;;;;;;;9.75;5.53;;;;;;;;;;4977788;28;20046;-81
2024/01/10 12:29:54;;;;;;;5.38;4.55;;;;;;;;;;4975031;28;20070;-82
2024/01/10 12:32:22;;;;;;;6.80;4.93;;;;;;;;;;4974652;28;20086;-79
2024/01/10 12:35:01;;;;;;;3.20;2.63;;;;;;;;;;4988782;28;20070;-80
2024/01/10 12:37:29;;;;;;;1.42;1.35;;;;;;;;;;4971686;28;20061;-79
2024/01/10 12:39:57;;;;;;;6.38;3.78;;;;;;;;;;4974213;28;20551;-79
2024/01/10 12:42:24;;;;;;;8.90;5.38;;;;;;;;;;4976796;28;20517;-80
2024/01/10 12:44:52;;;;;;;3.50;3.15;;;;;;;;;;4967613;28;20051;-79
2024/01/10 12:47:23;;;;;;;3.67;3.13;;;;;;;;;;4958975;28;20051;-76
2024/01/10 12:49:54;;;;;;;3.03;2.83;;;;;;;;;;4964690;28;20437;-77
2024/01/10 12:52:24;;;;;;;15.48;7.38;;;;;;;;;;4963826;28;20066;-76
2024/01/10 12:54:52;;;;;;;13.32;7.97;;;;;;;;;;4959394;28;20054;-75
2024/01/10 12:57:21;;;;;;;4.72;0.85;;;;;;;;;;4963236;28;20142;-77
2024/01/10 12:59:48;;;;;;;1.13;0.85;;;;;;;;;;4965004;28;20173;-76
2024/01/10 13:02:17;;;;;;;13.68;4.45;;;;;;;;;;4956913;28;20054;-76
2024/01/10 13:04:45;;;;;;;9.80;7.43;;;;;;;;;;4960208;28;20505;-76
2024/01/10 13:07:13;;;;;;;6.55;3.40;;;;;;;;;;4960974;28;20067;-76
2024/01/10 13:09:41;;;;;;;0.63;0.63;;;;;;;;;;4962239;28;20051;-76
2024/01/10 13:12:09;;;;;;;0.40;0.40;;;;;;;;;;4958952;28;20177;-76
2024/01/10 13:14:37;;;;;;;1.42;1.35;;;;;;;;;;4952420;28;20454;-77
2024/01/10 13:17:04;;;;;;;2.17;2.08;;;;;;;;;;4962164;28;20146;-77
2024/01/10 13:19:32;;;;;;;0.85;0.73;;;;;;;;;;4969541;28;20117;-77
2024/01/10 13:22:01;;;;;;;2.00;1.83;;;;;;;;;;4959687;28;20059;-77
2024/01/10 13:24:33;;;;;;;2.00;1.90;;;;;;;;;;4961979;28;20051;-75
2024/01/10 13:27:01;;;;;;;1.42;1.40;;;;;;;;;;4963019;28;20047;-76
2024/01/10 13:29:28;;;;;;;1.80;0.88;;;;;;;;;;4958713;28;20102;-76
2024/01/10 13:31:56;;;;;;;3.42;3.00;;;;;;;;;;4958567;28;20136;-76
2024/01/10 13:34:24;;;;;;;1.83;1.13;;;;;;;;;;4972018;28;20057;-76
2024/01/10 13:36:52;;;;;;;3.50;1.27;;;;;;;;;;4961228;28;20050;-77
2024/01/10 13:39:21;;;;;;;8.23;4.57;;;;;;;;;;4963265;28;20520;-76
2024/01/10 13:41:49;;;;;;;12.98;3.17;;;;;;;;;;4964979;28;20046;-76
2024/01/10 13:44:17;;;;;;;1.10;0.88;;;;;;;;;;4964970;28;20137;-76
2024/01/10 13:46:45;;;;;;;8.88;5.50;;;;;;;;;;4960090;28;20043;-75
2024/01/10 13:49:14;;;;;;;1.65;1.27;;;;;;;;;;4963556;28;20157;-75
2024/01/10 13:51:45;;;;;;;0.55;0.50;;;;;;;;;;4962228;28;20046;-76
2024/01/10 13:54:12;;;;;;;4.43;4.13;;;;;;;;;;4959714;28;20082;-76
2024/01/10 13:56:40;;;;;;;1.55;1.45;;;;;;;;;;4954462;28;20049;-76
2024/01/10 13:59:08;;;;;;;3.67;2.53;;;;;;;;;;4961478;28;20047;-75
2024/01/10 14:01:35;;;;;;;1.00;1.00;;;;;;;;;;4955501;28;20039;-75
2024/01/10 14:04:03;;;;;;;1.42;1.38;;;;;;;;;;4963845;28;20436;-75
2024/01/10 14:06:31;;;;;;;0.95;0.88;;;;;;;;;;4960105;28;20058;-76
2024/01/10 14:08:59;;;;;;;3.50;2.10;;;;;;;;;;4964909;28;20057;-76
2024/01/10 14:11:27;;;;;;;2.75;0.95;;;;;;;;;;4964649;28;20214;-75
2024/01/10 14:13:55;;;;;;;0.45;0.45;;;;;;;;;;4958034;28;20135;-76
2024/01/10 14:16:22;;;;;;;0.20;0.20;;;;;;;;;;4966467;28;20097;-75
2024/01/10 14:18:50;;;;;;;1.42;1.33;;;;;;;;;;4969317;28;20061;-76
2024/01/10 14:21:19;;;;;;;3.85;1.70;;;;;;;;;;4981989;28;20043;-75
2024/01/10 14:23:47;;;;;;;6.78;6.25;;;;;;;;;;4985393;28;20046;-75
2024/01/10 14:26:16;;;;;;;2.40;2.22;;;;;;;;;;4956103;28;20520;-76
2024/01/10 14:28:44;;;;;;;1.63;1.52;;;;;;;;;;4974355;28;20126;-75
2024/01/10 14:31:13;;;;;;;3.25;3.03;;;;;;;;;;4969890;28;20058;-75
2024/01/10 14:33:57;;;;;;;4.22;3.90;;;;;;;;;;4971036;28;20519;-76
2024/01/10 14:36:25;;;;;;;1.95;1.60;;;;;;;;;;4969940;28;20047;-75
2024/01/10 14:38:52;;;;;;;5.88;2.30;;;;;;;;;;4970517;28;20531;-75
2024/01/10 14:41:20;;;;;;;1.85;1.75;;;;;;;;;;4962688;28;20485;-75
2024/01/10 14:43:49;;;;;;;0.73;0.73;;;;;;;;;;4967201;28;20584;-75
2024/01/10 14:46:16;;;;;;;1.55;1.45;;;;;;;;;;4970263;28;20134;-76
2024/01/10 14:48:44;;;;;;;0.55;0.55;;;;;;;;;;4970884;28;20043;-76
2024/01/10 14:51:12;;;;;;;1.63;1.52;;;;;;;;;;4964638;28;20058;-75
2024/01/10 14:53:40;;;;;;;1.45;1.27;;;;;;;;;;4967605;28;20458;-75
2024/01/10 14:56:08;;;;;;;2.70;2.28;;;;;;;;;;4966332;28;20073;-75
2024/01/10 14:58:36;;;;;;;2.15;1.98;;;;;;;;;;4962252;28;20089;-75